Time;durP1;ratioP1;P1;durP2;ratioP2;P2;SDS_P1;SDS_P2;PMS_P1;PMS_P2;Temp;Humidity;BMP_temperature;BMP_pressure;BME280_temperature;BME280_humidity;BME280_pressure;Samples;Min_cycle;Max_cycle;Signal;HPM_P1;HPM_P2
2022/01/05 00:02:33;;;;;;;4.07;2.60;;;1.60;99.90;0.50;95084.00;;;;5025417;28;20821;-86
2022/01/05 00:05:22;;;;;;;3.23;2.57;;;1.20;99.90;0.70;95091.00;;;;5043314;28;20970;-86
2022/01/05 00:08:12;;;;;;;4.27;1.93;;;1.20;99.90;0.90;95086.00;;;;5050727;28;20416;-87
2022/01/05 00:11:02;;;;;;;3.07;2.60;;;1.10;99.90;0.90;95083.00;;;;5048656;28;21022;-85
2022/01/05 00:13:51;;;;;;;5.40;2.70;;;1.20;99.90;0.80;95097.00;;;;5050257;28;20415;-85
2022/01/05 00:16:40;;;;;;;3.83;2.57;;;1.50;99.90;0.70;95100.00;;;;5050324;28;20428;-84
2022/01/05 00:19:29;;;;;;;3.13;2.50;;;1.20;99.90;0.60;95085.00;;;;5046444;28;20532;-87
2022/01/05 00:22:18;;;;;;;3.77;2.13;;;1.20;99.90;0.70;95078.00;;;;5038933;28;20836;-85
2022/01/05 00:25:08;;;;;;;3.40;2.27;;;1.10;99.90;0.50;95085.00;;;;5037384;28;20797;-85
2022/01/05 00:27:58;;;;;;;3.50;2.40;;;1.10;99.90;0.50;95077.00;;;;5032459;28;20443;-84
2022/01/05 00:30:47;;;;;;;2.77;2.40;;;1.00;99.90;0.60;95083.00;;;;5031674;28;20492;-85
2022/01/05 00:33:36;;;;;;;2.93;2.37;;;0.90;99.90;0.50;95089.00;;;;5027080;28;20432;-85
2022/01/05 00:36:25;;;;;;;4.90;1.87;;;0.90;99.90;0.10;95080.00;;;;5026616;28;20424;-84
2022/01/05 00:39:14;;;;;;;3.40;2.17;;;0.90;99.90;0.30;95087.00;;;;5040328;28;20424;-84
2022/01/05 00:42:04;;;;;;;3.37;2.37;;;0.80;99.90;0.30;95078.00;;;;5043134;28;20968;-84
2022/01/05 00:44:55;;;;;;;3.50;2.17;;;0.90;99.90;0.20;95076.00;;;;5039901;28;20514;-84
2022/01/05 00:47:44;;;;;;;3.07;2.43;;;0.80;99.90;0.40;95075.00;;;;5028935;28;20478;-86
2022/01/05 00:50:32;;;;;;;5.87;2.80;;;0.80;99.90;0.40;95080.00;;;;5021328;28;20853;-85
2022/01/05 00:53:21;;;;;;;4.90;2.17;;;1.00;99.90;0.60;95079.00;;;;5034255;28;20427;-86
2022/01/05 00:56:10;;;;;;;2.87;2.27;;;0.80;99.90;0.70;95072.00;;;;5045490;28;20473;-86
2022/01/05 00:58:59;;;;;;;3.27;2.37;;;0.90;99.90;0.50;95071.00;;;;5033552;28;20424;-84
2022/01/05 01:01:50;;;;;;;4.93;2.83;;;0.90;99.90;0.20;95070.00;;;;5037704;28;20831;-86
2022/01/05 01:04:39;;;;;;;2.60;2.20;;;0.80;99.90;0.40;95063.00;;;;5040921;28;20447;-87
2022/01/05 01:07:27;;;;;;;2.30;1.80;;;0.80;99.90;0.30;95063.00;;;;5041138;28;20428;-85
2022/01/05 01:10:17;;;;;;;2.50;2.10;;;1.00;99.90;0.00;95071.00;;;;5027825;28;20475;-84
2022/01/05 01:13:05;;;;;;;3.30;2.40;;;0.90;99.90;-0.10;95065.00;;;;5056782;28;20427;-84
2022/01/05 01:15:54;;;;;;;2.90;2.60;;;0.70;99.90;0.20;95061.00;;;;5054622;28;20782;-86
2022/01/05 01:18:44;;;;;;;4.87;2.83;;;0.70;99.90;0.30;95059.00;;;;5046973;28;20440;-85
2022/01/05 01:21:33;;;;;;;2.53;2.33;;;1.40;99.90;0.30;95057.00;;;;5050882;28;20451;-85
2022/01/05 01:24:22;;;;;;;2.17;1.87;;;1.90;99.90;0.30;95052.00;;;;5048188;28;20424;-85
2022/01/05 01:27:11;;;;;;;4.37;2.73;;;0.70;99.90;0.10;95047.00;;;;5032398;28;20420;-86
2022/01/05 01:30:00;;;;;;;2.33;2.10;;;0.90;99.90;0.30;95031.00;;;;5028413;28;21005;-85
2022/01/05 01:32:49;;;;;;;3.37;2.43;;;0.90;99.90;0.30;95040.00;;;;5042435;28;20440;-87
2022/01/05 01:35:40;;;;;;;2.53;2.30;;;1.10;99.90;0.40;95039.00;;;;5033958;28;20423;-87
2022/01/05 01:38:28;;;;;;;3.07;2.00;;;0.60;99.90;0.30;95039.00;;;;5044872;28;20866;-85
2022/01/05 01:41:17;;;;;;;5.60;2.07;;;0.60;99.90;0.30;95035.00;;;;5049447;28;20454;-85
2022/01/05 01:44:07;;;;;;;3.43;2.47;;;0.60;99.90;0.20;95036.00;;;;5036199;28;20928;-85
2022/01/05 01:46:56;;;;;;;3.23;2.47;;;0.60;99.90;0.20;95029.00;;;;5029779;28;20435;-85
2022/01/05 01:49:45;;;;;;;2.43;1.87;;;0.60;99.90;0.30;95028.00;;;;5048698;28;20455;-85
2022/01/05 01:52:41;;;;;;;2.63;2.23;;;0.60;99.90;0.30;95031.00;;;;5034748;28;21000;-85
2022/01/05 01:55:30;;;;;;;2.23;1.97;;;0.70;99.90;0.30;95032.00;;;;5028499;28;20431;-87
2022/01/05 01:58:20;;;;;;;8.07;2.27;;;0.60;99.90;0.30;95019.00;;;;5025672;28;20435;-84
2022/01/05 02:01:09;;;;;;;2.50;2.30;;;0.60;99.90;0.30;95008.00;;;;5030787;28;20786;-86
2022/01/05 02:03:58;;;;;;;2.67;2.20;;;0.60;99.90;0.30;95018.00;;;;5032937;28;20950;-86
2022/01/05 02:06:47;;;;;;;3.33;2.20;;;0.60;99.90;0.20;95032.00;;;;5038725;28;20415;-84
2022/01/05 02:09:37;;;;;;;2.53;1.90;;;1.60;99.90;0.10;95014.00;;;;5047914;28;20447;-85
2022/01/05 02:12:27;;;;;;;2.00;1.47;;;0.60;99.90;0.00;95016.00;;;;5038865;28;20490;-86
2022/01/05 02:15:16;;;;;;;2.13;1.80;;;0.70;99.90;0.00;95028.00;;;;5047937;28;20440;-84
2022/01/05 02:18:21;;;;;;;2.00;1.80;;;0.60;99.90;0.30;95010.00;;;;5034089;28;20451;-85
2022/01/05 02:21:14;;;;;;;2.53;2.10;;;0.60;99.90;0.50;95005.00;;;;5038375;28;21006;-83
2022/01/05 02:24:04;;;;;;;2.77;1.70;;;0.60;99.90;0.00;95020.00;;;;5041132;28;20435;-85
2022/01/05 02:26:53;;;;;;;4.77;2.23;;;0.60;99.90;0.00;95003.00;;;;5044274;28;20430;-82
2022/01/05 02:29:42;;;;;;;1.87;1.77;;;0.90;99.90;0.10;95011.00;;;;5062066;28;20412;-83
2022/01/05 02:32:31;;;;;;;2.57;2.07;;;0.90;99.90;0.20;94992.00;;;;5053081;28;20477;-87
2022/01/05 02:35:21;;;;;;;3.13;1.87;;;0.60;99.90;0.30;95001.00;;;;5050842;28;20442;-87
2022/01/05 02:38:11;;;;;;;4.63;2.40;;;0.60;99.90;0.50;95008.00;;;;5049653;28;20431;-86
2022/01/05 02:41:07;;;;;;;2.53;1.97;;;0.80;99.90;0.50;94991.00;;;;5048157;28;20462;-87
2022/01/05 02:43:59;;;;;;;2.27;1.73;;;0.90;99.90;0.20;94979.00;;;;5039667;28;20428;-85
2022/01/05 02:46:48;;;;;;;4.07;2.27;;;0.70;99.90;0.30;94975.00;;;;5039724;28;20416;-86
2022/01/05 02:49:37;;;;;;;6.60;2.33;;;0.70;99.90;0.40;94974.00;;;;5049845;28;20994;-86
2022/01/05 02:52:26;;;;;;;2.33;2.13;;;0.70;99.90;0.20;94964.00;;;;5031314;28;20474;-86
2022/01/05 02:55:16;;;;;;;2.03;1.43;;;0.70;99.90;0.20;94971.00;;;;5051233;28;20416;-85
2022/01/05 02:58:05;;;;;;;3.50;1.73;;;0.70;99.90;0.40;94978.00;;;;5049911;28;20434;-86
2022/01/05 03:00:54;;;;;;;2.13;2.00;;;0.70;99.90;0.60;94959.00;;;;5033615;28;20547;-85
2022/01/05 03:03:43;;;;;;;1.67;1.57;;;0.80;99.90;0.30;94959.00;;;;5035334;28;20486;-86
2022/01/05 03:06:32;;;;;;;2.10;1.90;;;0.80;99.90;0.50;94955.00;;;;5032773;28;20424;-87
2022/01/05 03:09:21;;;;;;;3.43;1.87;;;0.80;99.90;0.50;94960.00;;;;5034615;28;20438;-84
2022/01/05 03:12:13;;;;;;;2.30;2.10;;;1.00;99.90;0.60;94956.00;;;;5032688;28;20557;-86
2022/01/05 03:15:03;;;;;;;1.70;1.40;;;0.90;99.90;0.70;94946.00;;;;5032967;28;20419;-85
2022/01/05 03:17:52;;;;;;;2.07;1.80;;;0.90;99.90;0.70;94955.00;;;;5048915;28;20427;-85
2022/01/05 03:20:41;;;;;;;2.77;1.70;;;1.00;99.90;0.70;94947.00;;;;5021890;28;20966;-86
2022/01/05 03:23:30;;;;;;;2.10;1.40;;;0.90;99.90;0.60;94955.00;;;;5047249;28;20424;-86
2022/01/05 03:26:19;;;;;;;2.53;2.07;;;1.00;99.90;0.60;94955.00;;;;5034694;28;20922;-84
2022/01/05 03:29:09;;;;;;;2.60;2.20;;;0.90;99.90;0.50;94952.00;;;;5036772;28;20427;-84
2022/01/05 03:31:58;;;;;;;3.50;2.20;;;0.90;99.90;0.60;94954.00;;;;5032175;28;21009;-84
2022/01/05 03:34:50;;;;;;;2.73;2.53;;;0.80;99.90;0.70;94952.00;;;;5031174;28;20428;-86
2022/01/05 03:37:38;;;;;;;2.53;2.33;;;0.90;99.90;0.50;94948.00;;;;5032343;28;20427;-84
2022/01/05 03:40:28;;;;;;;2.70;2.50;;;1.30;99.90;0.60;94948.00;;;;5030022;28;20427;-87
2022/01/05 03:43:17;;;;;;;2.70;2.40;;;0.90;99.90;0.60;94964.00;;;;5048027;28;20423;-84
2022/01/05 03:46:07;;;;;;;5.80;2.00;;;1.00;99.90;0.30;94947.00;;;;5034451;28;20450;-85
2022/01/05 03:48:56;;;;;;;1.57;1.47;;;0.90;99.90;0.10;94942.00;;;;5032808;28;20423;-84
2022/01/05 03:51:46;;;;;;;3.83;2.30;;;0.80;99.90;0.20;94948.00;;;;5037117;28;20469;-85
2022/01/05 03:54:35;;;;;;;3.73;2.07;;;0.80;99.90;0.40;94955.00;;;;5037356;28;20447;-85
2022/01/05 03:57:24;;;;;;;3.13;1.97;;;0.80;99.90;0.60;94955.00;;;;5031886;28;20444;-84
2022/01/05 04:00:15;;;;;;;3.77;2.47;;;0.80;99.90;0.50;94959.00;;;;5028916;28;20433;-84
2022/01/05 04:03:06;;;;;;;4.67;1.77;;;0.80;99.90;0.60;94949.00;;;;5021761;28;20436;-86
2022/01/05 04:05:55;;;;;;;2.30;1.90;;;0.90;99.90;0.50;94952.00;;;;5045794;28;20456;-85
2022/01/05 04:08:44;;;;;;;4.13;2.20;;;0.90;99.90;0.60;94957.00;;;;5046303;28;20415;-85
2022/01/05 04:11:32;;;;;;;3.57;2.20;;;0.90;99.90;0.40;94966.00;;;;5037070;28;20478;-86
2022/01/05 04:14:21;;;;;;;2.77;1.80;;;0.90;99.90;0.50;94958.00;;;;5035429;28;20434;-84
2022/01/05 04:17:10;;;;;;;2.40;2.20;;;0.90;99.90;0.60;94976.00;;;;5044578;28;20447;-85
2022/01/05 04:20:01;;;;;;;2.03;1.93;;;1.10;99.90;0.60;94981.00;;;;5045522;28;20424;-85
2022/01/05 04:22:50;;;;;;;3.90;2.40;;;1.40;99.90;0.60;94973.00;;;;5031884;28;20926;-85
2022/01/05 04:25:38;;;;;;;3.30;2.40;;;1.20;99.90;0.50;94977.00;;;;5029738;28;20439;-85
2022/01/05 04:28:27;;;;;;;2.77;2.20;;;0.90;99.90;0.60;94976.00;;;;5032178;28;20430;-86
2022/01/05 04:31:17;;;;;;;3.53;2.23;;;0.90;99.90;0.60;94971.00;;;;5029752;28;20959;-84
2022/01/05 04:34:06;;;;;;;2.13;1.90;;;0.90;99.90;0.60;94972.00;;;;5035999;28;20954;-85
2022/01/05 04:37:16;;;;;;;3.17;2.60;;;0.80;99.90;0.10;94979.00;;;;5038774;28;20974;-84
2022/01/05 04:40:07;;;;;;;2.17;1.83;;;0.90;99.90;0.10;94964.00;;;;5030209;28;20459;-84
2022/01/05 04:42:56;;;;;;;2.43;2.13;;;0.80;99.90;0.50;94962.00;;;;5041750;28;20423;-84
2022/01/05 04:45:45;;;;;;;2.63;2.30;;;0.80;99.90;0.70;94951.00;;;;5040667;28;20435;-83
2022/01/05 04:48:34;;;;;;;1.63;1.33;;;0.80;99.90;0.50;94964.00;;;;5023825;28;20537;-85
2022/01/05 04:51:22;;;;;;;3.63;1.53;;;0.90;99.90;0.20;94964.00;;;;5029511;28;20815;-84
2022/01/05 04:54:13;;;;;;;2.50;2.23;;;1.20;99.90;0.30;94956.00;;;;5032753;28;20423;-83
2022/01/05 04:57:02;;;;;;;3.63;2.13;;;1.10;99.90;0.50;94951.00;;;;5023172;28;20435;-85
2022/01/05 04:59:50;;;;;;;2.30;1.93;;;0.80;99.90;0.50;94967.00;;;;5029088;28;20417;-84
2022/01/05 05:02:39;;;;;;;2.40;1.97;;;0.80;99.90;0.80;94962.00;;;;5030220;28;20481;-84
2022/01/05 05:05:28;;;;;;;2.80;2.60;;;0.90;99.90;0.90;94963.00;;;;5029215;28;20860;-84
2022/01/05 05:08:17;;;;;;;3.77;2.40;;;1.00;99.90;1.00;94955.00;;;;5028538;28;20420;-85
2022/01/05 05:11:07;;;;;;;4.13;2.07;;;1.10;99.90;0.90;94955.00;;;;5031441;28;20846;-86
2022/01/05 05:13:56;;;;;;;2.67;1.87;;;1.10;99.90;0.70;94954.00;;;;5048996;28;20457;-84
2022/01/05 05:16:45;;;;;;;2.70;2.30;;;1.10;99.90;0.40;94971.00;;;;5047759;28;20958;-84
2022/01/05 05:19:34;;;;;;;2.10;1.93;;;1.00;99.90;0.80;94978.00;;;;5048951;28;20806;-86
2022/01/05 05:22:23;;;;;;;2.80;2.23;;;1.00;99.90;0.90;94979.00;;;;5040655;28;20789;-84
2022/01/05 05:25:12;;;;;;;2.07;1.87;;;1.10;99.90;0.80;94986.00;;;;5042693;28;20438;-84
2022/01/05 05:28:02;;;;;;;1.50;1.40;;;1.10;99.90;0.70;94978.00;;;;5029197;28;20415;-83
2022/01/05 05:30:53;;;;;;;2.97;2.50;;;1.10;99.90;0.70;94982.00;;;;5032738;28;20447;-84
2022/01/05 05:33:42;;;;;;;3.17;2.50;;;1.10;99.90;0.90;94995.00;;;;5048627;28;20471;-84
2022/01/05 05:36:31;;;;;;;2.07;1.97;;;1.10;99.90;0.40;94995.00;;;;5048312;28;20419;-82
2022/01/05 05:39:20;;;;;;;3.60;1.60;;;1.10;99.90;0.70;94992.00;;;;5075951;28;20426;-82
2022/01/05 05:42:09;;;;;;;3.83;2.80;;;1.20;99.90;0.90;94992.00;;;;5058632;28;20464;-87
2022/01/05 05:45:00;;;;;;;2.07;1.77;;;1.10;99.90;0.60;94984.00;;;;5035875;28;20417;-86
2022/01/05 05:47:49;;;;;;;2.40;1.87;;;1.10;99.90;0.40;95002.00;;;;5017002;28;20483;-87
2022/01/05 05:50:37;;;;;;;1.70;1.60;;;1.10;99.90;0.20;95012.00;;;;5015242;28;20794;-87
2022/01/05 05:53:26;;;;;;;2.27;2.07;;;1.00;99.90;0.40;95017.00;;;;5033415;28;21031;-84
2022/01/05 05:56:15;;;;;;;1.83;1.57;;;1.00;99.90;0.60;95006.00;;;;5034769;28;20807;-83
2022/01/05 05:59:04;;;;;;;4.00;2.27;;;1.00;99.90;0.70;95016.00;;;;5038525;28;20979;-86
2022/01/05 06:01:54;;;;;;;2.27;1.77;;;1.00;99.90;0.90;95029.00;;;;5045477;28;20444;-86
2022/01/05 06:04:43;;;;;;;2.90;2.03;;;1.10;99.90;1.10;95027.00;;;;5035210;28;20429;-85
2022/01/05 06:07:32;;;;;;;3.83;2.60;;;1.20;99.90;1.10;95025.00;;;;5033277;28;20436;-87
2022/01/05 06:10:21;;;;;;;3.00;2.60;;;1.20;99.90;1.30;95024.00;;;;5032720;28;20428;-84
2022/01/05 06:13:10;;;;;;;3.37;2.10;;;1.30;99.90;1.20;95025.00;;;;5052744;28;20475;-84
2022/01/05 06:15:58;;;;;;;1.53;1.43;;;1.40;99.90;1.00;95020.00;;;;5054127;28;20415;-85
2022/01/05 06:18:49;;;;;;;2.47;2.07;;;1.40;99.90;1.10;95033.00;;;;5053273;28;20842;-86
2022/01/05 06:21:38;;;;;;;2.13;1.90;;;1.50;99.90;1.30;95016.00;;;;5047080;28;20448;-86
2022/01/05 06:24:27;;;;;;;3.03;1.93;;;1.50;99.90;1.30;95018.00;;;;5014022;28;20441;-86
2022/01/05 06:27:16;;;;;;;3.90;2.90;;;1.50;99.90;1.40;95027.00;;;;5013831;28;20832;-86
2022/01/05 06:30:08;;;;;;;4.63;3.97;;;1.60;99.90;1.50;95025.00;;;;5011990;28;20432;-85
2022/01/05 06:32:57;;;;;;;2.93;2.63;;;1.60;99.90;1.20;95032.00;;;;5028225;28;20464;-86
2022/01/05 06:35:47;;;;;;;4.60;2.53;;;1.60;99.90;1.10;95050.00;;;;5032192;28;20434;-85
2022/01/05 06:38:36;;;;;;;2.67;1.90;;;1.60;99.90;1.20;95031.00;;;;5032346;28;20425;-84
2022/01/05 06:41:25;;;;;;;2.90;1.90;;;1.60;99.90;1.10;95034.00;;;;5033309;28;20451;-86
2022/01/05 06:44:13;;;;;;;3.77;2.00;;;1.50;99.90;1.20;95036.00;;;;5032112;28;21107;-84
2022/01/05 06:47:03;;;;;;;2.90;1.70;;;1.60;99.90;1.10;95040.00;;;;5032466;28;20435;-86
2022/01/05 06:49:51;;;;;;;4.27;2.33;;;1.60;99.90;1.40;95030.00;;;;5032559;28;20471;-87
2022/01/05 06:52:42;;;;;;;3.53;1.80;;;1.60;99.90;1.40;95038.00;;;;5044379;28;20823;-82
2022/01/05 06:55:31;;;;;;;2.30;2.00;;;1.70;99.90;1.60;95047.00;;;;5039881;28;20812;-85
2022/01/05 06:58:19;;;;;;;6.67;6.07;;;1.70;99.90;1.40;95036.00;;;;5030448;28;20431;-86
2022/01/05 07:01:08;;;;;;;2.30;2.10;;;1.70;99.90;1.40;95049.00;;;;5011050;28;20457;-83
2022/01/05 07:03:59;;;;;;;3.77;2.07;;;1.80;99.90;1.70;95051.00;;;;5011778;28;20440;-83
2022/01/05 07:06:48;;;;;;;2.30;2.10;;;1.80;99.90;1.80;95066.00;;;;5011052;28;20528;-84
2022/01/05 07:09:38;;;;;;;4.30;2.63;;;1.80;99.90;1.50;95052.00;;;;5010895;28;20444;-83
2022/01/05 07:12:27;;;;;;;3.10;2.80;;;1.90;99.90;1.70;95055.00;;;;5033983;28;20446;-84
2022/01/05 07:15:17;;;;;;;5.80;3.17;;;2.00;99.90;2.00;95066.00;;;;5049972;28;20423;-85
2022/01/05 07:18:06;;;;;;;2.30;1.83;;;2.00;99.90;1.80;95080.00;;;;5050184;28;20428;-83
2022/01/05 07:20:55;;;;;;;2.60;2.13;;;2.10;99.90;1.50;95071.00;;;;5050828;28;20442;-84
2022/01/05 07:23:43;;;;;;;2.93;2.60;;;2.10;99.90;1.90;95071.00;;;;5028733;28;20415;-84
2022/01/05 07:26:34;;;;;;;3.80;2.87;;;2.10;99.90;2.20;95067.00;;;;5029916;28;20444;-84
2022/01/05 07:29:23;;;;;;;3.27;2.77;;;2.10;99.90;2.30;95068.00;;;;5031220;28;20792;-83
2022/01/05 07:32:11;;;;;;;3.07;2.03;;;2.20;99.90;2.10;95059.00;;;;5039874;28;21067;-84
2022/01/05 07:35:00;;;;;;;3.00;2.70;;;2.30;99.90;2.20;95066.00;;;;5045842;28;20482;-85
2022/01/05 07:37:49;;;;;;;2.77;2.17;;;2.40;99.90;2.50;95073.00;;;;5041432;28;20427;-85
2022/01/05 07:40:38;;;;;;;3.40;2.30;;;2.50;99.90;2.30;95072.00;;;;5049760;28;20826;-84
2022/01/05 07:43:29;;;;;;;2.90;2.60;;;2.60;99.90;2.60;95079.00;;;;5048783;28;20430;-84
2022/01/05 07:46:18;;;;;;;4.20;2.23;;;2.40;99.90;2.80;95064.00;;;;5042991;28;20935;-83
2022/01/05 07:49:07;;;;;;;3.43;2.73;;;2.70;99.90;2.80;95064.00;;;;5030806;28;20424;-84
2022/01/05 07:51:56;;;;;;;2.83;2.60;;;2.80;99.90;2.70;95067.00;;;;5030195;28;20448;-85
2022/01/05 07:54:45;;;;;;;6.30;3.83;;;2.80;99.90;2.60;95077.00;;;;5030628;28;20472;-85
2022/01/05 07:57:34;;;;;;;5.23;3.73;;;2.90;99.90;2.60;95072.00;;;;5041556;28;20440;-84
2022/01/05 08:00:24;;;;;;;6.83;3.33;;;2.80;99.90;2.60;95073.00;;;;5049289;28;20431;-84
2022/01/05 08:03:13;;;;;;;3.13;2.90;;;2.90;99.90;2.80;95074.00;;;;5033476;28;20448;-84
2022/01/05 08:06:02;;;;;;;4.70;2.80;;;2.90;99.90;3.00;95068.00;;;;5031424;28;20475;-86
2022/01/05 08:08:52;;;;;;;4.03;3.33;;;2.90;99.90;3.10;95080.00;;;;5030446;28;20432;-87
2022/01/05 08:11:40;;;;;;;2.67;1.80;;;3.00;99.90;2.70;95088.00;;;;5033935;28;20966;-85
2022/01/05 08:14:31;;;;;;;2.80;2.23;;;3.00;99.90;2.50;95085.00;;;;5050194;28;20459;-85
2022/01/05 08:17:23;;;;;;;3.77;2.73;;;3.00;99.90;2.70;95086.00;;;;5020673;28;20431;-85
2022/01/05 08:20:14;;;;;;;3.50;2.43;;;3.00;99.90;3.00;95083.00;;;;5018097;28;20433;-83
2022/01/05 08:23:03;;;;;;;3.57;3.23;;;3.10;99.90;3.30;95078.00;;;;5031428;28;20478;-84
2022/01/05 08:25:53;;;;;;;8.50;3.50;;;3.20;99.90;3.50;95103.00;;;;5018079;28;20444;-83
2022/01/05 08:28:42;;;;;;;6.67;3.07;;;3.40;99.90;3.60;95101.00;;;;5028435;28;20432;-84
2022/01/05 08:31:31;;;;;;;10.60;3.90;;;3.50;99.90;3.70;95113.00;;;;5034285;28;20444;-83
2022/01/05 08:34:21;;;;;;;2.63;2.07;;;3.60;99.90;3.50;95122.00;;;;5039613;28;20463;-84
2022/01/05 08:37:10;;;;;;;3.13;2.53;;;3.70;99.90;3.60;95113.00;;;;5036416;28;20989;-82
2022/01/05 08:39:59;;;;;;;4.07;2.90;;;3.70;99.90;3.50;95116.00;;;;5037768;28;20435;-82
2022/01/05 08:42:48;;;;;;;3.80;2.67;;;3.70;99.90;3.50;95118.00;;;;5022953;28;21233;-84
2022/01/05 08:45:37;;;;;;;4.80;3.03;;;3.80;99.90;3.40;95123.00;;;;5035437;28;20478;-85
2022/01/05 08:48:26;;;;;;;2.93;2.30;;;3.70;99.90;3.50;95142.00;;;;5041310;28;20423;-83
2022/01/05 08:51:16;;;;;;;6.47;3.37;;;3.70;99.90;3.50;95145.00;;;;5048312;28;20452;-84
2022/01/05 08:54:06;;;;;;;2.70;2.50;;;3.60;99.90;3.50;95148.00;;;;5015987;28;20869;-83
2022/01/05 08:56:55;;;;;;;3.17;2.40;;;3.60;99.90;3.40;95174.00;;;;5029723;28;20436;-84
2022/01/05 08:59:47;;;;;;;3.33;2.60;;;3.60;99.90;3.40;95173.00;;;;5030949;28;20433;-84
2022/01/05 09:02:36;;;;;;;3.57;2.73;;;3.60;99.90;3.50;95204.00;;;;5031428;28;20829;-86
2022/01/05 09:05:25;;;;;;;2.43;2.23;;;3.70;99.90;3.90;95206.00;;;;5028891;28;20434;-86
2022/01/05 09:08:16;;;;;;;6.93;2.70;;;3.70;99.90;4.40;95219.00;;;;5033254;28;21168;-83
2022/01/05 09:11:07;;;;;;;2.60;2.40;;;3.90;99.90;4.50;95217.00;;;;5017796;28;20438;-85
2022/01/05 09:13:56;;;;;;;4.00;2.70;;;4.10;99.90;4.60;95224.00;;;;5033188;28;20224;-86
2022/01/05 09:16:45;;;;;;;4.20;2.50;;;4.30;99.90;4.70;95242.00;;;;5035061;28;20591;-86
2022/01/05 09:19:34;;;;;;;3.10;2.77;;;4.40;99.90;4.80;95255.00;;;;5034991;28;20959;-85
2022/01/05 09:22:24;;;;;;;3.03;1.93;;;4.50;99.90;4.90;95269.00;;;;5038953;28;20274;-84
2022/01/05 09:25:18;;;;;;;2.23;2.00;;;4.60;99.90;4.90;95268.00;;;;5036938;28;20721;-84
2022/01/05 09:28:08;;;;;;;4.30;2.80;;;4.70;99.90;4.90;95267.00;;;;5019628;28;20201;-86
2022/01/05 09:30:57;;;;;;;2.60;2.27;;;4.80;99.90;5.00;95267.00;;;;5033605;28;20229;-87
2022/01/05 09:33:46;;;;;;;2.63;2.07;;;4.80;99.90;5.00;95265.00;;;;5055670;28;20242;-87
2022/01/05 09:36:40;;;;;;;3.27;1.87;;;4.90;99.90;5.10;95278.00;;;;5054281;28;20269;-85
2022/01/05 09:42:42;;;;;;;2.33;1.80;;;5.00;99.90;5.20;95259.00;;;;5009612;28;20212;-86
2022/01/05 09:45:35;;;;;;;3.57;1.70;;;5.10;99.90;5.30;95254.00;;;;5030555;28;20194;-85
2022/01/05 09:48:45;;;;;;;2.83;1.70;;;5.20;99.90;5.30;95245.00;;;;5028697;28;20349;-86
2022/01/05 09:51:36;;;;;;;3.63;1.20;;;5.20;99.90;5.30;95256.00;;;;5036910;28;20680;-84
2022/01/05 09:54:26;;;;;;;1.10;1.00;;;5.20;99.90;5.40;95239.00;;;;5027798;28;20233;-86
2022/01/05 09:57:19;;;;;;;0.90;0.90;;;5.30;99.90;5.50;95245.00;;;;5025157;28;20201;-85
2022/01/05 10:00:12;;;;;;;1.50;1.10;;;5.30;99.90;5.60;95264.00;;;;5029436;28;20223;-85
2022/01/05 10:03:01;;;;;;;1.73;1.17;;;5.40;99.90;5.60;95277.00;;;;5044531;28;20932;-85
2022/01/05 10:05:55;;;;;;;4.20;1.10;;;5.40;99.90;5.40;95275.00;;;;5041520;28;20198;-82
2022/01/05 10:08:45;;;;;;;3.33;1.10;;;5.40;99.90;5.40;95277.00;;;;5024920;28;20214;-86
2022/01/05 10:11:35;;;;;;;1.00;0.63;;;5.40;99.90;5.50;95275.00;;;;5020700;28;20232;-86
2022/01/05 10:14:24;;;;;;;0.90;0.83;;;5.40;99.90;5.50;95273.00;;;;5016203;28;20213;-85
2022/01/05 10:17:17;;;;;;;1.63;1.00;;;5.40;99.90;5.50;95276.00;;;;5025163;28;20228;-85
2022/01/05 10:20:09;;;;;;;0.70;0.70;;;5.40;99.90;5.50;95286.00;;;;5019779;28;20197;-84
2022/01/05 10:22:58;;;;;;;1.03;0.80;;;6.40;99.90;5.60;95308.00;;;;5031633;28;20198;-85
2022/01/05 10:25:47;;;;;;;3.43;0.90;;;5.40;99.90;5.50;95309.00;;;;5030420;28;20691;-84
2022/01/05 10:28:36;;;;;;;1.03;0.80;;;5.40;99.90;5.50;95310.00;;;;5020960;28;20197;-84
2022/01/05 10:31:28;;;;;;;1.40;0.83;;;5.40;99.90;5.40;95319.00;;;;5032281;28;20221;-85
2022/01/05 10:34:21;;;;;;;0.87;0.80;;;5.40;99.90;5.50;95307.00;;;;5032084;28;20804;-84
2022/01/05 10:37:10;;;;;;;1.10;0.73;;;5.40;99.90;5.40;95303.00;;;;5022421;28;20194;-84
2022/01/05 10:40:09;;;;;;;0.93;0.90;;;5.30;99.90;5.40;95300.00;;;;5028441;28;20701;-84
2022/01/05 10:42:58;;;;;;;1.77;0.70;;;5.30;99.90;5.40;95304.00;;;;5032548;28;20201;-85
2022/01/05 10:45:50;;;;;;;0.60;0.60;;;5.30;99.90;5.50;95287.00;;;;5032135;28;20672;-84
2022/01/05 10:48:42;;;;;;;0.77;0.77;;;5.30;99.90;5.40;95296.00;;;;5035226;28;20216;-85
2022/01/05 10:51:45;;;;;;;0.70;0.70;;;5.30;99.90;5.40;95287.00;;;;5032963;28;20229;-86
2022/01/05 10:54:34;;;;;;;0.87;0.87;;;5.30;99.90;5.50;95300.00;;;;5024373;28;20740;-84
2022/01/05 10:57:23;;;;;;;0.83;0.83;;;5.30;99.90;5.50;95321.00;;;;5031764;28;20672;-85
2022/01/05 11:00:13;;;;;;;0.40;0.40;;;5.30;99.90;5.50;95316.00;;;;5031289;28;20220;-85
2022/01/05 11:03:03;;;;;;;0.53;0.50;;;5.40;99.90;5.50;95314.00;;;;5033640;28;20206;-84
2022/01/05 11:06:05;;;;;;;2.57;0.50;;;5.40;99.90;5.60;95321.00;;;;5031234;28;20236;-84
2022/01/05 11:08:59;;;;;;;0.40;0.40;;;5.40;99.90;5.60;95317.00;;;;5019350;28;20196;-85
2022/01/05 11:11:50;;;;;;;3.90;2.20;;;5.40;99.90;5.60;95299.00;;;;5031745;28;20720;-85
2022/01/05 11:14:39;;;;;;;12.83;7.53;;;5.40;99.90;5.70;95281.00;;;;5025424;28;20202;-84
2022/01/05 11:17:28;;;;;;;1.23;1.03;;;5.40;99.90;5.60;95293.00;;;;5024775;28;20203;-86
2022/01/05 11:20:17;;;;;;;1.50;0.80;;;5.50;99.90;5.40;95313.00;;;;5030692;28;20688;-85
2022/01/05 11:23:07;;;;;;;0.20;0.20;;;5.50;99.90;5.60;95316.00;;;;5030973;28;20260;-84
2022/01/05 11:25:59;;;;;;;0.40;0.40;;;5.50;99.90;5.70;95302.00;;;;5028842;28;20559;-84
2022/01/05 11:28:48;;;;;;;1.07;0.60;;;5.50;99.90;5.80;95310.00;;;;5033318;28;20583;-85
2022/01/05 11:31:38;;;;;;;0.80;0.80;;;5.50;99.90;5.80;95308.00;;;;5031580;28;20229;-86
2022/01/05 11:34:29;;;;;;;0.47;0.47;;;5.60;99.90;5.70;95316.00;;;;5031775;28;20216;-83
2022/01/05 11:37:20;;;;;;;0.70;0.50;;;5.60;99.90;5.80;95314.00;;;;5031453;28;20209;-84
2022/01/05 11:40:09;;;;;;;5.80;0.60;;;5.60;99.90;5.70;95317.00;;;;5029992;28;20198;-84
2022/01/05 11:43:05;;;;;;;5.00;1.20;;;5.60;99.90;5.70;95304.00;;;;5039979;28;20192;-85
2022/01/05 11:45:54;;;;;;;1.47;1.23;;;5.60;99.90;5.50;95297.00;;;;5031092;28;20194;-85
2022/01/05 11:48:59;;;;;;;5.37;1.20;;;5.60;99.90;5.70;95305.00;;;;5018336;28;20197;-84
2022/01/05 11:51:51;;;;;;;1.23;1.13;;;5.60;99.90;5.70;95303.00;;;;5030660;28;20216;-86
2022/01/05 11:54:40;;;;;;;0.63;0.63;;;5.60;99.90;5.60;95303.00;;;;5028210;28;20208;-86
2022/01/05 11:57:29;;;;;;;0.80;0.80;;;5.60;99.90;5.70;95301.00;;;;5026529;28;20209;-84
2022/01/05 12:00:20;;;;;;;0.40;0.40;;;5.60;99.90;5.80;95304.00;;;;5030191;28;20212;-87
2022/01/05 12:03:09;;;;;;;0.60;0.60;;;5.60;99.90;5.60;95323.00;;;;5029987;28;20216;-85
2022/01/05 12:06:05;;;;;;;0.70;0.70;;;5.60;99.90;5.60;95304.00;;;;5030173;28;20205;-85
2022/01/05 12:08:57;;;;;;;0.90;0.87;;;5.60;99.90;5.70;95310.00;;;;5037371;28;20498;-84
2022/01/05 12:11:46;;;;;;;1.03;1.03;;;5.60;99.90;5.40;95312.00;;;;5029841;28;20221;-85
2022/01/05 12:14:48;;;;;;;1.60;1.50;;;5.70;99.90;5.60;95311.00;;;;5031459;28;20201;-84
2022/01/05 12:17:38;;;;;;;1.90;1.50;;;5.60;99.90;5.80;95302.00;;;;5030076;28;20203;-84
2022/01/05 12:20:35;;;;;;;1.10;0.73;;;5.60;99.90;5.70;95297.00;;;;5030552;28;20265;-85
2022/01/05 12:23:27;;;;;;;1.77;0.60;;;5.60;99.90;5.70;95290.00;;;;5069678;28;20185;-83
2022/01/05 12:26:17;;;;;;;1.17;0.40;;;5.60;99.90;5.80;95294.00;;;;5055772;28;20201;-86
2022/01/05 12:29:06;;;;;;;0.53;0.50;;;5.60;99.90;5.70;95299.00;;;;5033184;28;20206;-86
2022/01/05 12:32:02;;;;;;;3.23;1.23;;;5.70;99.90;5.40;95311.00;;;;5041259;28;20217;-87
2022/01/05 12:34:55;;;;;;;0.30;0.30;;;5.60;99.90;5.70;95307.00;;;;5035662;28;20197;-87
2022/01/05 12:37:48;;;;;;;0.20;0.20;;;5.60;99.90;5.70;95301.00;;;;5032212;28;20201;-87
2022/01/05 12:40:39;;;;;;;0.30;0.30;;;5.60;99.90;5.40;95330.00;;;;5031113;28;20220;-87
2022/01/05 12:43:34;;;;;;;3.03;0.30;;;5.60;99.90;5.50;95339.00;;;;5033946;28;20223;-85
2022/01/05 12:46:45;;;;;;;0.50;0.50;;;5.50;99.90;5.70;95341.00;;;;5043834;28;20620;-84
2022/01/05 12:49:37;;;;;;;0.50;0.50;;;5.60;99.90;5.70;95326.00;;;;5031563;28;20588;-86
2022/01/05 12:52:38;;;;;;;0.20;0.20;;;5.60;99.90;5.70;95321.00;;;;5036784;28;20221;-84
2022/01/05 12:55:28;;;;;;;0.47;0.40;;;5.60;99.90;5.80;95334.00;;;;5029266;28;20228;-86
2022/01/05 12:58:17;;;;;;;0.30;0.20;;;6.20;99.90;5.80;95340.00;;;;5033859;28;20202;-86